SBOSBO RAK / GMMX
Speedbird OnlineSpeedbird Online RAK / GMMX

Menara Airport
23:28 12°C

Location Marrakech, Morocco
Latitude: 31.606899261499997
Longitude: -8.03629970551
Local Time 23:28 on 27 Feb 2024
UTC +1 hours (Africa/Casablanca)
Currency £1 equals MAD 12.76
METAR GMMX 272200Z 05010KT 020V080 9999 FEW023 12/02 Q1023 NOSIG
TAF TAF GMMX 271700Z 2718/2824 06006KT 8000 SCT026 TEMPO 2718/2722 30018KT
Weather As Of 27 Feb 2024 23:23
Description Few clouds
Wind 19 km/h from North-East (50°)
Cloud Cover 20%
Precipitation Rain: none, Snow: none
Sunrise 08:02
Sunset 19:27
NOTAM 4 active NOTAM
Rotations During the last 90 days there were
123 flights from LGW
58 flights from LHR
123 flights to LGW
61 flights to LHR
Lounges Oasis Lounge , Terminal 1
Pearl Lounge , Terminal 1
Web Wikipedia
Codes IATA: RAK
ICAO: GMMX
Altitude 471 Meter / 1545 Feet
Distance 2,311 KM / 1,436 Miles
from London.
Runways
RunwayLength (m)Surface
103100Asphalt
283100Asphalt
Radio
TypeDescriptionFrequency
APPMARRAKECH APP119.7
TWRMARRAKECH TWR118.7
Live ATC



Support Speedbird Online

© 2017-2024 Speedbird Online